sensor_id;sensor_type;location;lat;lon;timestamp;temperature;humidity
28845;DHT22;15976;47.938;7.758;2023-02-01T00:00:32;7.10;72.10
28845;DHT22;15976;47.938;7.758;2023-02-01T00:03:01;7.10;72.10
28845;DHT22;15976;47.938;7.758;2023-02-01T00:05:28;7.10;72.20
28845;DHT22;15976;47.938;7.758;2023-02-01T00:07:55;7.00;72.10
28845;DHT22;15976;47.938;7.758;2023-02-01T00:10:21;7.00;72.20
28845;DHT22;15976;47.938;7.758;2023-02-01T00:12:49;7.00;72.30
28845;DHT22;15976;47.938;7.758;2023-02-01T00:15:16;7.00;72.30
28845;DHT22;15976;47.938;7.758;2023-02-01T00:17:43;7.00;72.40
28845;DHT22;15976;47.938;7.758;2023-02-01T00:20:10;7.00;72.40
28845;DHT22;15976;47.938;7.758;2023-02-01T00:22:37;6.90;72.30
28845;DHT22;15976;47.938;7.758;2023-02-01T00:25:05;6.90;72.30
28845;DHT22;15976;47.938;7.758;2023-02-01T00:27:32;6.90;72.40
28845;DHT22;15976;47.938;7.758;2023-02-01T00:29:59;6.90;72.40
28845;DHT22;15976;47.938;7.758;2023-02-01T00:32:26;6.90;72.30
28845;DHT22;15976;47.938;7.758;2023-02-01T00:34:53;6.90;72.20
28845;DHT22;15976;47.938;7.758;2023-02-01T00:37:20;6.90;72.20
28845;DHT22;15976;47.938;7.758;2023-02-01T00:39:48;6.90;72.20
28845;DHT22;15976;47.938;7.758;2023-02-01T00:42:16;6.90;72.20
28845;DHT22;15976;47.938;7.758;2023-02-01T00:44:43;6.90;72.20
28845;DHT22;15976;47.938;7.758;2023-02-01T00:47:10;6.90;72.00
28845;DHT22;15976;47.938;7.758;2023-02-01T00:49:37;6.90;72.10
28845;DHT22;15976;47.938;7.758;2023-02-01T00:52:04;6.90;72.10
28845;DHT22;15976;47.938;7.758;2023-02-01T00:54:32;6.80;72.00
28845;DHT22;15976;47.938;7.758;2023-02-01T00:56:59;6.80;72.10
28845;DHT22;15976;47.938;7.758;2023-02-01T00:59:26;6.80;72.20
28845;DHT22;15976;47.938;7.758;2023-02-01T01:01:54;6.80;72.10
28845;DHT22;15976;47.938;7.758;2023-02-01T01:04:21;6.80;72.00
28845;DHT22;15976;47.938;7.758;2023-02-01T01:06:48;6.80;72.00
28845;DHT22;15976;47.938;7.758;2023-02-01T01:09:15;6.80;72.70
28845;DHT22;15976;47.938;7.758;2023-02-01T01:11:42;6.80;72.00
28845;DHT22;15976;47.938;7.758;2023-02-01T01:14:10;6.80;72.20
28845;DHT22;15976;47.938;7.758;2023-02-01T01:16:37;6.80;72.20
28845;DHT22;15976;47.938;7.758;2023-02-01T01:19:04;6.80;72.20
28845;DHT22;15976;47.938;7.758;2023-02-01T01:21:32;6.80;72.10
28845;DHT22;15976;47.938;7.758;2023-02-01T01:23:59;6.80;72.20
28845;DHT22;15976;47.938;7.758;2023-02-01T01:26:28;6.70;72.10
28845;DHT22;15976;47.938;7.758;2023-02-01T01:28:57;6.80;72.10
28845;DHT22;15976;47.938;7.758;2023-02-01T01:31:25;6.80;72.00
28845;DHT22;15976;47.938;7.758;2023-02-01T01:33:55;6.80;72.10
28845;DHT22;15976;47.938;7.758;2023-02-01T01:36:24;6.80;72.10
28845;DHT22;15976;47.938;7.758;2023-02-01T01:38:51;6.70;72.10
28845;DHT22;15976;47.938;7.758;2023-02-01T01:41:25;6.70;72.10
28845;DHT22;15976;47.938;7.758;2023-02-01T01:43:57;6.70;72.00
28845;DHT22;15976;47.938;7.758;2023-02-01T01:46:37;6.70;71.90
28845;DHT22;15976;47.938;7.758;2023-02-01T01:49:21;6.80;71.90
28845;DHT22;15976;47.938;7.758;2023-02-01T01:51:56;6.70;71.70
28845;DHT22;15976;47.938;7.758;2023-02-01T01:54:30;6.70;71.70
28845;DHT22;15976;47.938;7.758;2023-02-01T01:57:03;6.70;71.60
28845;DHT22;15976;47.938;7.758;2023-02-01T01:59:32;6.70;71.60
28845;DHT22;15976;47.938;7.758;2023-02-01T02:02:02;6.70;71.40
28845;DHT22;15976;47.938;7.758;2023-02-01T02:04:31;6.60;71.40
28845;DHT22;15976;47.938;7.758;2023-02-01T02:07:13;6.60;71.40
28845;DHT22;15976;47.938;7.758;2023-02-01T02:09:41;6.60;72.20
28845;DHT22;15976;47.938;7.758;2023-02-01T02:12:25;6.60;71.50
28845;DHT22;15976;47.938;7.758;2023-02-01T02:14:52;6.60;71.30
28845;DHT22;15976;47.938;7.758;2023-02-01T02:30:51;6.40;71.70
28845;DHT22;15976;47.938;7.758;2023-02-01T02:36:43;6.30;72.10
28845;DHT22;15976;47.938;7.758;2023-02-01T02:47:47;6.40;72.00
28845;DHT22;15976;47.938;7.758;2023-02-01T02:50:34;6.30;72.00
28845;DHT22;15976;47.938;7.758;2023-02-01T02:53:26;6.40;72.20
28845;DHT22;15976;47.938;7.758;2023-02-01T02:56:12;6.30;72.20
28845;DHT22;15976;47.938;7.758;2023-02-01T02:59:01;6.30;72.40
28845;DHT22;15976;47.938;7.758;2023-02-01T03:01:49;6.30;72.50
28845;DHT22;15976;47.938;7.758;2023-02-01T03:04:37;6.30;72.50
28845;DHT22;15976;47.938;7.758;2023-02-01T03:13:15;6.40;72.70
28845;DHT22;15976;47.938;7.758;2023-02-01T03:21:00;6.40;72.60
28845;DHT22;15976;47.938;7.758;2023-02-01T03:23:34;6.40;72.60
28845;DHT22;15976;47.938;7.758;2023-02-01T03:26:03;6.40;72.70
28845;DHT22;15976;47.938;7.758;2023-02-01T03:28:33;6.40;72.80
28845;DHT22;15976;47.938;7.758;2023-02-01T03:31:01;6.30;72.80
28845;DHT22;15976;47.938;7.758;2023-02-01T03:33:29;6.30;73.00
28845;DHT22;15976;47.938;7.758;2023-02-01T03:36:09;6.40;73.10
28845;DHT22;15976;47.938;7.758;2023-02-01T03:41:29;6.40;73.30
28845;DHT22;15976;47.938;7.758;2023-02-01T03:47:01;6.30;73.60
28845;DHT22;15976;47.938;7.758;2023-02-01T03:49:43;6.30;73.60
28845;DHT22;15976;47.938;7.758;2023-02-01T03:52:15;6.30;73.90
28845;DHT22;15976;47.938;7.758;2023-02-01T03:54:43;6.20;73.90
28845;DHT22;15976;47.938;7.758;2023-02-01T03:57:14;6.20;74.20
28845;DHT22;15976;47.938;7.758;2023-02-01T03:59:45;6.20;74.40
28845;DHT22;15976;47.938;7.758;2023-02-01T04:02:12;6.10;74.40
28845;DHT22;15976;47.938;7.758;2023-02-01T04:04:39;6.10;74.50
28845;DHT22;15976;47.938;7.758;2023-02-01T04:07:07;6.10;74.70
28845;DHT22;15976;47.938;7.758;2023-02-01T04:09:34;6.10;74.80
28845;DHT22;15976;47.938;7.758;2023-02-01T04:12:01;6.10;74.90
28845;DHT22;15976;47.938;7.758;2023-02-01T04:14:29;6.10;74.90
28845;DHT22;15976;47.938;7.758;2023-02-01T04:16:55;6.10;75.00
28845;DHT22;15976;47.938;7.758;2023-02-01T04:19:22;6.20;75.10
28845;DHT22;15976;47.938;7.758;2023-02-01T04:21:49;6.10;75.00
28845;DHT22;15976;47.938;7.758;2023-02-01T04:24:16;6.10;75.00
28845;DHT22;15976;47.938;7.758;2023-02-01T04:26:43;6.10;75.10
28845;DHT22;15976;47.938;7.758;2023-02-01T04:29:10;6.10;75.20
28845;DHT22;15976;47.938;7.758;2023-02-01T04:31:37;6.00;75.30
28845;DHT22;15976;47.938;7.758;2023-02-01T04:34:04;6.00;76.10
28845;DHT22;15976;47.938;7.758;2023-02-01T04:36:31;6.00;75.40
28845;DHT22;15976;47.938;7.758;2023-02-01T04:38:58;6.10;75.40
28845;DHT22;15976;47.938;7.758;2023-02-01T04:41:25;6.00;75.40
28845;DHT22;15976;47.938;7.758;2023-02-01T04:43:52;6.00;75.60
28845;DHT22;15976;47.938;7.758;2023-02-01T04:46:19;5.90;75.60
28845;DHT22;15976;47.938;7.758;2023-02-01T04:48:47;6.00;75.60
28845;DHT22;15976;47.938;7.758;2023-02-01T04:51:13;5.90;75.60
28845;DHT22;15976;47.938;7.758;2023-02-01T04:53:41;5.90;75.80
28845;DHT22;15976;47.938;7.758;2023-02-01T04:56:08;5.90;75.80
28845;DHT22;15976;47.938;7.758;2023-02-01T04:58:35;5.90;75.80
28845;DHT22;15976;47.938;7.758;2023-02-01T05:01:04;5.90;75.80
28845;DHT22;15976;47.938;7.758;2023-02-01T05:03:34;5.90;76.70
28845;DHT22;15976;47.938;7.758;2023-02-01T05:06:02;5.90;76.80
28845;DHT22;15976;47.938;7.758;2023-02-01T05:08:31;5.90;76.00
28845;DHT22;15976;47.938;7.758;2023-02-01T05:10:58;5.90;76.00
28845;DHT22;15976;47.938;7.758;2023-02-01T05:13:26;5.90;76.10
28845;DHT22;15976;47.938;7.758;2023-02-01T05:16:11;5.90;76.00
28845;DHT22;15976;47.938;7.758;2023-02-01T05:18:38;6.00;76.00
28845;DHT22;15976;47.938;7.758;2023-02-01T05:21:05;6.00;76.00
28845;DHT22;15976;47.938;7.758;2023-02-01T05:23:32;6.00;76.00
28845;DHT22;15976;47.938;7.758;2023-02-01T05:26:19;6.00;76.00
28845;DHT22;15976;47.938;7.758;2023-02-01T05:28:47;6.00;76.00
28845;DHT22;15976;47.938;7.758;2023-02-01T05:31:14;6.00;76.00
28845;DHT22;15976;47.938;7.758;2023-02-01T05:33:42;6.00;76.10
28845;DHT22;15976;47.938;7.758;2023-02-01T05:36:09;6.00;76.20
28845;DHT22;15976;47.938;7.758;2023-02-01T05:38:36;5.90;76.10
28845;DHT22;15976;47.938;7.758;2023-02-01T05:41:03;6.00;76.20
28845;DHT22;15976;47.938;7.758;2023-02-01T05:43:31;6.00;76.40
28845;DHT22;15976;47.938;7.758;2023-02-01T05:45:58;6.00;76.40
28845;DHT22;15976;47.938;7.758;2023-02-01T05:48:25;6.00;76.30
28845;DHT22;15976;47.938;7.758;2023-02-01T05:50:52;6.00;76.20
28845;DHT22;15976;47.938;7.758;2023-02-01T05:53:19;6.00;76.20
28845;DHT22;15976;47.938;7.758;2023-02-01T05:55:46;6.00;76.30
28845;DHT22;15976;47.938;7.758;2023-02-01T05:58:13;6.00;76.30
28845;DHT22;15976;47.938;7.758;2023-02-01T06:00:40;6.00;76.40
28845;DHT22;15976;47.938;7.758;2023-02-01T06:03:07;6.00;76.40
28845;DHT22;15976;47.938;7.758;2023-02-01T06:05:35;6.00;76.40
28845;DHT22;15976;47.938;7.758;2023-02-01T06:08:02;6.00;76.30
28845;DHT22;15976;47.938;7.758;2023-02-01T06:10:29;6.10;76.40
28845;DHT22;15976;47.938;7.758;2023-02-01T06:12:56;6.00;76.30
28845;DHT22;15976;47.938;7.758;2023-02-01T06:15:23;6.10;76.30
28845;DHT22;15976;47.938;7.758;2023-02-01T06:17:50;6.10;76.20
28845;DHT22;15976;47.938;7.758;2023-02-01T06:20:17;6.10;76.20
28845;DHT22;15976;47.938;7.758;2023-02-01T06:22:44;6.10;76.30
28845;DHT22;15976;47.938;7.758;2023-02-01T06:25:11;6.10;76.20
28845;DHT22;15976;47.938;7.758;2023-02-01T06:27:38;6.10;76.30
28845;DHT22;15976;47.938;7.758;2023-02-01T06:30:06;6.10;76.30
28845;DHT22;15976;47.938;7.758;2023-02-01T06:32:33;6.10;76.40
28845;DHT22;15976;47.938;7.758;2023-02-01T06:35:00;6.00;76.50
28845;DHT22;15976;47.938;7.758;2023-02-01T06:37:27;6.00;76.50
28845;DHT22;15976;47.938;7.758;2023-02-01T06:39:56;6.00;76.60
28845;DHT22;15976;47.938;7.758;2023-02-01T06:42:23;6.00;76.60
28845;DHT22;15976;47.938;7.758;2023-02-01T06:44:50;6.00;76.60
28845;DHT22;15976;47.938;7.758;2023-02-01T06:47:17;6.00;76.60
28845;DHT22;15976;47.938;7.758;2023-02-01T06:49:44;6.00;76.70
28845;DHT22;15976;47.938;7.758;2023-02-01T06:52:11;6.00;76.70
28845;DHT22;15976;47.938;7.758;2023-02-01T06:54:38;6.00;76.60
28845;DHT22;15976;47.938;7.758;2023-02-01T06:57:05;6.00;76.60
28845;DHT22;15976;47.938;7.758;2023-02-01T06:59:32;6.00;76.70
28845;DHT22;15976;47.938;7.758;2023-02-01T07:01:58;6.00;76.70
28845;DHT22;15976;47.938;7.758;2023-02-01T07:04:25;6.00;76.70
28845;DHT22;15976;47.938;7.758;2023-02-01T07:06:52;6.00;76.60
28845;DHT22;15976;47.938;7.758;2023-02-01T07:09:19;6.00;76.70
28845;DHT22;15976;47.938;7.758;2023-02-01T07:11:46;6.00;76.70
28845;DHT22;15976;47.938;7.758;2023-02-01T07:14:13;6.00;76.80
28845;DHT22;15976;47.938;7.758;2023-02-01T07:16:40;6.00;76.80
28845;DHT22;15976;47.938;7.758;2023-02-01T07:19:07;6.00;76.80
28845;DHT22;15976;47.938;7.758;2023-02-01T07:21:34;6.00;76.80
28845;DHT22;15976;47.938;7.758;2023-02-01T07:24:01;6.10;76.70
28845;DHT22;15976;47.938;7.758;2023-02-01T07:26:29;6.10;76.80
28845;DHT22;15976;47.938;7.758;2023-02-01T07:28:56;6.10;76.80
28845;DHT22;15976;47.938;7.758;2023-02-01T07:31:23;6.10;76.80
28845;DHT22;15976;47.938;7.758;2023-02-01T07:33:51;6.20;76.90
28845;DHT22;15976;47.938;7.758;2023-02-01T07:36:19;6.10;76.90
28845;DHT22;15976;47.938;7.758;2023-02-01T07:38:46;6.10;77.00
28845;DHT22;15976;47.938;7.758;2023-02-01T07:41:19;6.20;77.10
28845;DHT22;15976;47.938;7.758;2023-02-01T07:43:46;6.20;77.10
28845;DHT22;15976;47.938;7.758;2023-02-01T07:46:13;6.20;77.10
28845;DHT22;15976;47.938;7.758;2023-02-01T07:48:42;6.30;77.10
28845;DHT22;15976;47.938;7.758;2023-02-01T07:51:12;6.30;77.10
28845;DHT22;15976;47.938;7.758;2023-02-01T07:53:40;6.30;77.20
28845;DHT22;15976;47.938;7.758;2023-02-01T07:56:14;6.30;77.40
28845;DHT22;15976;47.938;7.758;2023-02-01T07:58:42;6.30;77.40
28845;DHT22;15976;47.938;7.758;2023-02-01T08:01:23;6.30;77.40
28845;DHT22;15976;47.938;7.758;2023-02-01T08:03:53;6.40;77.40
28845;DHT22;15976;47.938;7.758;2023-02-01T08:06:21;6.40;77.30
28845;DHT22;15976;47.938;7.758;2023-02-01T08:08:52;6.50;77.20
28845;DHT22;15976;47.938;7.758;2023-02-01T08:11:20;6.50;77.20
28845;DHT22;15976;47.938;7.758;2023-02-01T08:13:47;6.50;77.10
28845;DHT22;15976;47.938;7.758;2023-02-01T08:16:16;6.50;77.10
28845;DHT22;15976;47.938;7.758;2023-02-01T08:18:43;6.50;77.10
28845;DHT22;15976;47.938;7.758;2023-02-01T08:21:19;6.50;77.00
28845;DHT22;15976;47.938;7.758;2023-02-01T08:23:47;6.50;77.00
28845;DHT22;15976;47.938;7.758;2023-02-01T08:26:25;6.50;77.00
28845;DHT22;15976;47.938;7.758;2023-02-01T08:28:56;6.60;77.00
28845;DHT22;15976;47.938;7.758;2023-02-01T08:31:26;6.60;76.90
28845;DHT22;15976;47.938;7.758;2023-02-01T08:33:55;6.60;76.90
28845;DHT22;15976;47.938;7.758;2023-02-01T08:36:24;6.60;76.80
28845;DHT22;15976;47.938;7.758;2023-02-01T08:38:52;6.60;76.90
28845;DHT22;15976;47.938;7.758;2023-02-01T08:41:22;6.60;76.80
28845;DHT22;15976;47.938;7.758;2023-02-01T08:43:50;6.60;76.80
28845;DHT22;15976;47.938;7.758;2023-02-01T08:46:17;6.60;77.60
28845;DHT22;15976;47.938;7.758;2023-02-01T08:48:46;6.60;77.00
28845;DHT22;15976;47.938;7.758;2023-02-01T08:51:16;6.60;77.10
28845;DHT22;15976;47.938;7.758;2023-02-01T08:53:43;6.60;77.10
28845;DHT22;15976;47.938;7.758;2023-02-01T08:56:12;6.60;77.20
28845;DHT22;15976;47.938;7.758;2023-02-01T08:58:39;6.70;77.10
28845;DHT22;15976;47.938;7.758;2023-02-01T09:01:09;6.70;77.10
28845;DHT22;15976;47.938;7.758;2023-02-01T09:03:36;6.70;77.00
28845;DHT22;15976;47.938;7.758;2023-02-01T09:06:05;6.70;77.10
28845;DHT22;15976;47.938;7.758;2023-02-01T09:08:33;6.70;77.10
28845;DHT22;15976;47.938;7.758;2023-02-01T09:11:01;6.70;77.20
28845;DHT22;15976;47.938;7.758;2023-02-01T09:13:29;6.70;77.10
28845;DHT22;15976;47.938;7.758;2023-02-01T09:15:57;6.70;77.20
28845;DHT22;15976;47.938;7.758;2023-02-01T09:18:26;6.70;77.20
28845;DHT22;15976;47.938;7.758;2023-02-01T09:20:53;6.70;77.20
28845;DHT22;15976;47.938;7.758;2023-02-01T09:23:20;6.70;77.30
28845;DHT22;15976;47.938;7.758;2023-02-01T09:25:47;6.70;77.40
28845;DHT22;15976;47.938;7.758;2023-02-01T09:28:17;6.80;77.50
28845;DHT22;15976;47.938;7.758;2023-02-01T09:30:44;6.80;77.50
28845;DHT22;15976;47.938;7.758;2023-02-01T09:33:12;6.90;77.80
28845;DHT22;15976;47.938;7.758;2023-02-01T09:35:39;7.00;77.60
28845;DHT22;15976;47.938;7.758;2023-02-01T09:38:06;7.20;77.50
28845;DHT22;15976;47.938;7.758;2023-02-01T09:40:34;7.30;77.10
28845;DHT22;15976;47.938;7.758;2023-02-01T09:48:36;7.60;76.40
28845;DHT22;15976;47.938;7.758;2023-02-01T09:51:10;7.60;76.20
28845;DHT22;15976;47.938;7.758;2023-02-01T09:53:42;7.60;76.30
28845;DHT22;15976;47.938;7.758;2023-02-01T09:56:18;7.70;76.00
28845;DHT22;15976;47.938;7.758;2023-02-01T09:59:04;7.70;76.00
28845;DHT22;15976;47.938;7.758;2023-02-01T10:01:36;7.70;75.80
28845;DHT22;15976;47.938;7.758;2023-02-01T10:04:10;7.70;75.90
28845;DHT22;15976;47.938;7.758;2023-02-01T10:15:02;7.70;75.70
28845;DHT22;15976;47.938;7.758;2023-02-01T10:20:07;7.80;75.50
28845;DHT22;15976;47.938;7.758;2023-02-01T10:22:50;7.90;75.60
28845;DHT22;15976;47.938;7.758;2023-02-01T10:28:13;8.00;75.30
28845;DHT22;15976;47.938;7.758;2023-02-01T10:30:54;8.00;75.30
28845;DHT22;15976;47.938;7.758;2023-02-01T10:33:56;8.10;75.10
28845;DHT22;15976;47.938;7.758;2023-02-01T10:36:29;8.20;74.90
28845;DHT22;15976;47.938;7.758;2023-02-01T10:38:58;8.30;74.40
28845;DHT22;15976;47.938;7.758;2023-02-01T10:41:31;8.30;74.10
28845;DHT22;15976;47.938;7.758;2023-02-01T10:44:00;8.30;74.20
28845;DHT22;15976;47.938;7.758;2023-02-01T10:46:31;8.40;74.10
28845;DHT22;15976;47.938;7.758;2023-02-01T10:49:00;8.50;73.70
28845;DHT22;15976;47.938;7.758;2023-02-01T10:51:59;8.50;73.50
28845;DHT22;15976;47.938;7.758;2023-02-01T10:54:35;8.50;73.10
28845;DHT22;15976;47.938;7.758;2023-02-01T10:57:02;8.40;72.80
28845;DHT22;15976;47.938;7.758;2023-02-01T10:59:33;8.40;72.80
28845;DHT22;15976;47.938;7.758;2023-02-01T11:05:03;8.40;73.00
28845;DHT22;15976;47.938;7.758;2023-02-01T11:07:32;8.50;72.80
28845;DHT22;15976;47.938;7.758;2023-02-01T11:09:59;8.50;72.40
28845;DHT22;15976;47.938;7.758;2023-02-01T11:12:34;8.60;72.20
28845;DHT22;15976;47.938;7.758;2023-02-01T11:15:27;8.70;72.10
28845;DHT22;15976;47.938;7.758;2023-02-01T11:17:54;8.80;71.60
28845;DHT22;15976;47.938;7.758;2023-02-01T11:22:59;8.80;71.10
28845;DHT22;15976;47.938;7.758;2023-02-01T11:25:28;8.90;71.20
28845;DHT22;15976;47.938;7.758;2023-02-01T11:27:56;9.00;70.90
28845;DHT22;15976;47.938;7.758;2023-02-01T11:30:34;9.00;70.50
28845;DHT22;15976;47.938;7.758;2023-02-01T11:33:04;9.00;70.50
28845;DHT22;15976;47.938;7.758;2023-02-01T11:35:37;9.20;70.40
28845;DHT22;15976;47.938;7.758;2023-02-01T11:38:32;9.20;70.10
28845;DHT22;15976;47.938;7.758;2023-02-01T11:41:25;9.50;69.60
28845;DHT22;15976;47.938;7.758;2023-02-01T11:44:00;9.60;68.90
28845;DHT22;15976;47.938;7.758;2023-02-01T11:46:34;9.80;68.50
28845;DHT22;15976;47.938;7.758;2023-02-01T11:49:23;10.00;67.90
28845;DHT22;15976;47.938;7.758;2023-02-01T12:39:42;9.10;67.20
28845;DHT22;15976;47.938;7.758;2023-02-01T12:42:18;9.10;67.10
28845;DHT22;15976;47.938;7.758;2023-02-01T12:44:56;9.10;67.20
28845;DHT22;15976;47.938;7.758;2023-02-01T12:47:51;9.20;67.20
28845;DHT22;15976;47.938;7.758;2023-02-01T12:50:46;9.20;67.00
28845;DHT22;15976;47.938;7.758;2023-02-01T12:53:16;9.30;67.10
28845;DHT22;15976;47.938;7.758;2023-02-01T12:55:50;9.20;66.80
28845;DHT22;15976;47.938;7.758;2023-02-01T13:01:11;9.10;66.70
28845;DHT22;15976;47.938;7.758;2023-02-01T13:03:50;9.10;66.70
28845;DHT22;15976;47.938;7.758;2023-02-01T13:06:23;9.00;66.70
28845;DHT22;15976;47.938;7.758;2023-02-01T13:09:03;9.00;66.80
28845;DHT22;15976;47.938;7.758;2023-02-01T13:11:39;8.90;66.90
28845;DHT22;15976;47.938;7.758;2023-02-01T13:14:27;8.90;67.00
28845;DHT22;15976;47.938;7.758;2023-02-01T13:22:47;8.70;67.50
28845;DHT22;15976;47.938;7.758;2023-02-01T13:25:31;8.70;67.60
28845;DHT22;15976;47.938;7.758;2023-02-01T13:28:30;8.80;67.50
28845;DHT22;15976;47.938;7.758;2023-02-01T13:39:14;9.00;66.70
28845;DHT22;15976;47.938;7.758;2023-02-01T13:44:30;8.90;66.00
28845;DHT22;15976;47.938;7.758;2023-02-01T13:47:02;8.90;65.80
28845;DHT22;15976;47.938;7.758;2023-02-01T13:49:37;8.80;65.50
28845;DHT22;15976;47.938;7.758;2023-02-01T13:52:06;8.70;65.80
28845;DHT22;15976;47.938;7.758;2023-02-01T13:54:45;8.70;65.80
28845;DHT22;15976;47.938;7.758;2023-02-01T13:57:36;8.70;65.80
28845;DHT22;15976;47.938;7.758;2023-02-01T14:03:12;8.80;65.60
28845;DHT22;15976;47.938;7.758;2023-02-01T14:06:01;8.80;65.60
28845;DHT22;15976;47.938;7.758;2023-02-01T14:08:42;8.80;65.60
28845;DHT22;15976;47.938;7.758;2023-02-01T14:11:33;8.70;65.60
28845;DHT22;15976;47.938;7.758;2023-02-01T14:19:38;8.50;66.20
28845;DHT22;15976;47.938;7.758;2023-02-01T14:24:53;8.40;66.50
28845;DHT22;15976;47.938;7.758;2023-02-01T14:27:28;8.40;66.60
28845;DHT22;15976;47.938;7.758;2023-02-01T14:29:58;8.40;66.50
28845;DHT22;15976;47.938;7.758;2023-02-01T14:32:30;8.40;66.60
28845;DHT22;15976;47.938;7.758;2023-02-01T14:35:00;8.40;66.70
28845;DHT22;15976;47.938;7.758;2023-02-01T14:37:30;8.40;66.60
28845;DHT22;15976;47.938;7.758;2023-02-01T14:40:15;8.40;66.50
28845;DHT22;15976;47.938;7.758;2023-02-01T14:42:46;8.40;66.40
28845;DHT22;15976;47.938;7.758;2023-02-01T14:50:38;8.40;66.30
28845;DHT22;15976;47.938;7.758;2023-02-01T14:58:56;8.40;66.00
28845;DHT22;15976;47.938;7.758;2023-02-01T15:01:33;8.40;65.90
28845;DHT22;15976;47.938;7.758;2023-02-01T15:04:04;8.40;65.90
28845;DHT22;15976;47.938;7.758;2023-02-01T15:06:40;8.40;65.90
28845;DHT22;15976;47.938;7.758;2023-02-01T15:14:21;8.30;66.30
28845;DHT22;15976;47.938;7.758;2023-02-01T15:16:48;8.30;66.40
28845;DHT22;15976;47.938;7.758;2023-02-01T15:19:28;8.30;66.60
28845;DHT22;15976;47.938;7.758;2023-02-01T15:21:58;8.30;66.70
28845;DHT22;15976;47.938;7.758;2023-02-01T15:24:27;8.20;66.80
28845;DHT22;15976;47.938;7.758;2023-02-01T15:26:56;8.30;67.00
28845;DHT22;15976;47.938;7.758;2023-02-01T15:29:28;8.30;67.00
28845;DHT22;15976;47.938;7.758;2023-02-01T15:31:59;8.20;67.00
28845;DHT22;15976;47.938;7.758;2023-02-01T15:34:46;8.20;67.00
28845;DHT22;15976;47.938;7.758;2023-02-01T15:37:15;8.20;67.10
28845;DHT22;15976;47.938;7.758;2023-02-01T15:40:02;8.20;67.20
28845;DHT22;15976;47.938;7.758;2023-02-01T15:42:30;8.20;67.10
28845;DHT22;15976;47.938;7.758;2023-02-01T15:44:58;8.20;67.00
28845;DHT22;15976;47.938;7.758;2023-02-01T15:47:27;8.20;67.00
28845;DHT22;15976;47.938;7.758;2023-02-01T15:49:58;8.20;67.00
28845;DHT22;15976;47.938;7.758;2023-02-01T15:52:39;8.20;67.20
28845;DHT22;15976;47.938;7.758;2023-02-01T15:55:40;8.10;67.20
28845;DHT22;15976;47.938;7.758;2023-02-01T15:58:20;8.10;66.90
28845;DHT22;15976;47.938;7.758;2023-02-01T16:00:50;8.20;67.00
28845;DHT22;15976;47.938;7.758;2023-02-01T16:03:40;8.20;66.90
28845;DHT22;15976;47.938;7.758;2023-02-01T16:06:12;8.20;66.60
28845;DHT22;15976;47.938;7.758;2023-02-01T16:08:55;8.10;66.50
28845;DHT22;15976;47.938;7.758;2023-02-01T16:14:01;8.10;66.30
28845;DHT22;15976;47.938;7.758;2023-02-01T16:16:29;8.20;66.30
28845;DHT22;15976;47.938;7.758;2023-02-01T16:18:56;8.10;65.90
28845;DHT22;15976;47.938;7.758;2023-02-01T16:21:24;8.20;66.10
28845;DHT22;15976;47.938;7.758;2023-02-01T16:23:51;8.10;66.10
28845;DHT22;15976;47.938;7.758;2023-02-01T16:26:19;8.10;66.30
28845;DHT22;15976;47.938;7.758;2023-02-01T16:28:47;8.10;66.50
28845;DHT22;15976;47.938;7.758;2023-02-01T16:31:16;8.10;66.90
28845;DHT22;15976;47.938;7.758;2023-02-01T16:33:49;8.10;67.60
28845;DHT22;15976;47.938;7.758;2023-02-01T16:36:17;8.00;68.10
28845;DHT22;15976;47.938;7.758;2023-02-01T16:38:45;8.00;68.40
28845;DHT22;15976;47.938;7.758;2023-02-01T16:41:17;7.90;68.60
28845;DHT22;15976;47.938;7.758;2023-02-01T16:43:44;7.90;69.00
28845;DHT22;15976;47.938;7.758;2023-02-01T16:46:16;7.90;69.10
28845;DHT22;15976;47.938;7.758;2023-02-01T16:48:50;7.90;69.10
28845;DHT22;15976;47.938;7.758;2023-02-01T16:51:18;7.80;69.00
28845;DHT22;15976;47.938;7.758;2023-02-01T16:53:45;7.80;69.10
28845;DHT22;15976;47.938;7.758;2023-02-01T16:56:40;7.80;69.10
28845;DHT22;15976;47.938;7.758;2023-02-01T16:59:09;7.70;69.00
28845;DHT22;15976;47.938;7.758;2023-02-01T17:01:36;7.70;69.00
28845;DHT22;15976;47.938;7.758;2023-02-01T17:04:04;7.70;68.90
28845;DHT22;15976;47.938;7.758;2023-02-01T17:06:32;7.80;69.00
28845;DHT22;15976;47.938;7.758;2023-02-01T17:09:00;7.80;68.90
28845;DHT22;15976;47.938;7.758;2023-02-01T17:11:29;7.70;68.80
28845;DHT22;15976;47.938;7.758;2023-02-01T17:14:07;7.70;68.90
28845;DHT22;15976;47.938;7.758;2023-02-01T17:16:37;7.70;68.90
28845;DHT22;15976;47.938;7.758;2023-02-01T17:19:06;7.70;69.00
28845;DHT22;15976;47.938;7.758;2023-02-01T17:21:48;7.70;69.00
28845;DHT22;15976;47.938;7.758;2023-02-01T17:24:21;7.70;69.20
28845;DHT22;15976;47.938;7.758;2023-02-01T17:26:49;7.70;69.20
28845;DHT22;15976;47.938;7.758;2023-02-01T17:29:17;7.70;69.40
28845;DHT22;15976;47.938;7.758;2023-02-01T17:31:47;7.70;69.50
28845;DHT22;15976;47.938;7.758;2023-02-01T17:34:15;7.70;69.60
28845;DHT22;15976;47.938;7.758;2023-02-01T17:36:44;7.70;69.60
28845;DHT22;15976;47.938;7.758;2023-02-01T17:39:13;7.70;69.70
28845;DHT22;15976;47.938;7.758;2023-02-01T17:42:05;7.70;69.90
28845;DHT22;15976;47.938;7.758;2023-02-01T17:44:32;7.70;69.80
28845;DHT22;15976;47.938;7.758;2023-02-01T17:46:59;7.60;69.90
28845;DHT22;15976;47.938;7.758;2023-02-01T17:49:27;7.60;70.10
28845;DHT22;15976;47.938;7.758;2023-02-01T17:51:57;7.60;70.10
28845;DHT22;15976;47.938;7.758;2023-02-01T17:54:24;7.60;70.30
28845;DHT22;15976;47.938;7.758;2023-02-01T17:56:52;7.60;70.60
28845;DHT22;15976;47.938;7.758;2023-02-01T17:59:19;7.60;70.60
28845;DHT22;15976;47.938;7.758;2023-02-01T18:01:46;7.60;70.60
28845;DHT22;15976;47.938;7.758;2023-02-01T18:04:16;7.60;70.60
28845;DHT22;15976;47.938;7.758;2023-02-01T18:06:44;7.50;70.50
28845;DHT22;15976;47.938;7.758;2023-02-01T18:09:11;7.60;70.60
28845;DHT22;15976;47.938;7.758;2023-02-01T18:11:39;7.60;70.60
28845;DHT22;15976;47.938;7.758;2023-02-01T18:14:11;7.60;70.60
28845;DHT22;15976;47.938;7.758;2023-02-01T18:16:39;7.50;71.20
28845;DHT22;15976;47.938;7.758;2023-02-01T18:19:07;7.50;70.40
28845;DHT22;15976;47.938;7.758;2023-02-01T18:21:37;7.50;70.40
28845;DHT22;15976;47.938;7.758;2023-02-01T18:24:06;7.50;70.40
28845;DHT22;15976;47.938;7.758;2023-02-01T18:26:35;7.50;70.50
28845;DHT22;15976;47.938;7.758;2023-02-01T18:29:02;7.50;70.50
28845;DHT22;15976;47.938;7.758;2023-02-01T18:31:31;7.50;70.50
28845;DHT22;15976;47.938;7.758;2023-02-01T18:33:59;7.50;70.50
28845;DHT22;15976;47.938;7.758;2023-02-01T18:36:27;7.50;70.60
28845;DHT22;15976;47.938;7.758;2023-02-01T18:38:56;7.50;70.60
28845;DHT22;15976;47.938;7.758;2023-02-01T18:41:24;7.50;70.80
28845;DHT22;15976;47.938;7.758;2023-02-01T18:43:52;7.50;70.70
28845;DHT22;15976;47.938;7.758;2023-02-01T18:46:19;7.40;70.80
28845;DHT22;15976;47.938;7.758;2023-02-01T18:48:49;7.40;71.00
28845;DHT22;15976;47.938;7.758;2023-02-01T18:51:21;7.40;71.10
28845;DHT22;15976;47.938;7.758;2023-02-01T18:53:49;7.40;71.00